Time;durP1;ratioP1;P1;durP2;ratioP2;P2;SDS_P1;SDS_P2;PMS_P1;PMS_P2;Temp;Humidity;BMP_temperature;BMP_pressure;BME280_temperature;BME280_humidity;BME280_pressure;Samples;Min_cycle;Max_cycle;Signal;HPM_P1;HPM_P2
2022/01/27 00:05:20;;;;;;;13.90;8.30;;;;;;;;;;5046381;28;20045;-60
2022/01/27 00:08:07;;;;;;;14.10;7.40;;;;;;;;;;5030303;28;20132;-60
2022/01/27 00:13:11;;;;;;;13.60;7.63;;;;;;;;;;5046793;28;20512;-60
2022/01/27 00:15:39;;;;;;;13.52;7.32;;;;;;;;;;5045881;28;20453;-61
2022/01/27 00:18:12;;;;;;;12.88;6.88;;;;;;;;;;5046559;28;20072;-61
2022/01/27 00:20:38;;;;;;;14.25;7.50;;;;;;;;;;5030267;28;20384;-60
2022/01/27 00:23:04;;;;;;;13.27;7.60;;;;;;;;;;5046351;28;20128;-61
2022/01/27 00:25:30;;;;;;;14.18;7.90;;;;;;;;;;5078834;28;20055;-60
2022/01/27 00:27:56;;;;;;;13.43;7.45;;;;;;;;;;5088562;28;20044;-61
2022/01/27 00:30:22;;;;;;;12.93;6.57;;;;;;;;;;5106512;28;20050;-61
2022/01/27 00:32:49;;;;;;;12.20;6.97;;;;;;;;;;5109485;28;20046;-60
2022/01/27 00:35:15;;;;;;;13.35;6.78;;;;;;;;;;5090708;28;20525;-61
2022/01/27 00:37:41;;;;;;;14.80;7.95;;;;;;;;;;5107766;28;20067;-60
2022/01/27 00:40:09;;;;;;;13.57;7.10;;;;;;;;;;5108640;28;20063;-61
2022/01/27 00:42:35;;;;;;;12.43;6.78;;;;;;;;;;5108798;28;20104;-61
2022/01/27 00:45:02;;;;;;;13.35;7.18;;;;;;;;;;5107089;28;20509;-61
2022/01/27 00:47:28;;;;;;;16.05;7.53;;;;;;;;;;5109629;28;20035;-61
2022/01/27 00:49:54;;;;;;;13.68;7.10;;;;;;;;;;5110095;28;20153;-60
2022/01/27 00:52:30;;;;;;;13.32;6.80;;;;;;;;;;5107927;28;20067;-60
2022/01/27 00:54:56;;;;;;;14.05;7.40;;;;;;;;;;5109728;28;20040;-61
2022/01/27 01:00:08;;;;;;;14.48;7.13;;;;;;;;;;5113417;28;20055;-60
2022/01/27 01:02:47;;;;;;;15.45;6.57;;;;;;;;;;5113480;28;20051;-60
2022/01/27 01:05:46;;;;;;;13.65;7.28;;;;;;;;;;5113039;28;20039;-61
2022/01/27 01:16:20;;;;;;;13.35;7.20;;;;;;;;;;5112520;28;20047;-60
2022/01/27 01:18:57;;;;;;;13.85;7.47;;;;;;;;;;5113301;28;20044;-61
2022/01/27 01:21:49;;;;;;;13.15;6.88;;;;;;;;;;5112853;28;20397;-61
2022/01/27 01:32:44;;;;;;;12.93;7.03;;;;;;;;;;5049916;28;20080;-60
2022/01/27 01:35:11;;;;;;;13.50;7.13;;;;;;;;;;5049602;28;20044;-60
2022/01/27 01:37:39;;;;;;;12.88;6.93;;;;;;;;;;5049699;28;20079;-60
2022/01/27 01:40:06;;;;;;;13.90;7.40;;;;;;;;;;5049768;28;20086;-60
2022/01/27 01:42:32;;;;;;;12.77;6.65;;;;;;;;;;5049470;28;20124;-60
2022/01/27 01:45:02;;;;;;;15.02;7.25;;;;;;;;;;5033070;28;20500;-60
2022/01/27 01:47:28;;;;;;;14.63;7.40;;;;;;;;;;5049408;28;20033;-60
2022/01/27 01:49:54;;;;;;;12.25;6.95;;;;;;;;;;5032208;28;20056;-60
2022/01/27 01:52:20;;;;;;;15.40;7.68;;;;;;;;;;5005367;28;20091;-61
2022/01/27 01:54:46;;;;;;;14.15;7.70;;;;;;;;;;5030379;28;20128;-60
2022/01/27 01:57:12;;;;;;;14.05;7.45;;;;;;;;;;5049611;28;20130;-60
2022/01/27 01:59:38;;;;;;;15.70;8.05;;;;;;;;;;5049231;28;20500;-60
2022/01/27 02:02:04;;;;;;;16.65;7.68;;;;;;;;;;5049370;28;20155;-60
2022/01/27 02:04:30;;;;;;;16.02;8.05;;;;;;;;;;5066525;28;20056;-60
2022/01/27 02:07:01;;;;;;;14.20;7.45;;;;;;;;;;5031966;28;20044;-60
2022/01/27 02:18:00;;;;;;;13.13;7.70;;;;;;;;;;5112071;28;20092;-60
2022/01/27 02:20:27;;;;;;;15.82;8.00;;;;;;;;;;5112176;28;20043;-60
2022/01/27 02:22:53;;;;;;;17.85;8.43;;;;;;;;;;5110186;28;20067;-60
2022/01/27 02:25:19;;;;;;;13.73;7.60;;;;;;;;;;5112343;28;20043;-60
2022/01/27 02:27:45;;;;;;;16.50;8.60;;;;;;;;;;5111358;28;20031;-60
2022/01/27 02:30:11;;;;;;;15.80;8.13;;;;;;;;;;5111824;28;20109;-60
2022/01/27 02:32:37;;;;;;;14.25;8.40;;;;;;;;;;5109931;28;20040;-60
2022/01/27 02:35:04;;;;;;;17.77;9.50;;;;;;;;;;5109669;28;20134;-60
2022/01/27 02:37:30;;;;;;;15.65;8.82;;;;;;;;;;5110646;28;20510;-60
2022/01/27 02:39:56;;;;;;;15.02;8.88;;;;;;;;;;5111227;28;20035;-60
2022/01/27 02:42:32;;;;;;;15.25;8.65;;;;;;;;;;5092637;28;20055;-60
2022/01/27 02:45:07;;;;;;;14.55;8.85;;;;;;;;;;5092846;28;20048;-60
2022/01/27 02:47:33;;;;;;;15.40;8.27;;;;;;;;;;5111314;28;20076;-60
2022/01/27 02:49:59;;;;;;;13.88;8.73;;;;;;;;;;5110878;28;20044;-60
2022/01/27 02:52:25;;;;;;;15.38;8.80;;;;;;;;;;5110308;28;20115;-60
2022/01/27 02:54:51;;;;;;;16.63;8.63;;;;;;;;;;5111659;28;20412;-60
2022/01/27 02:57:19;;;;;;;17.17;8.82;;;;;;;;;;5109254;28;20411;-60
2022/01/27 02:59:45;;;;;;;16.58;7.80;;;;;;;;;;5110801;28;20055;-60
2022/01/27 03:02:11;;;;;;;16.63;9.90;;;;;;;;;;5108409;28;20043;-60
2022/01/27 03:04:37;;;;;;;14.65;9.07;;;;;;;;;;5109725;28;20032;-60
2022/01/27 03:07:04;;;;;;;16.63;9.32;;;;;;;;;;5110464;28;20449;-60
2022/01/27 03:09:30;;;;;;;17.00;8.85;;;;;;;;;;5110180;28;20126;-60
2022/01/27 03:12:00;;;;;;;14.73;9.00;;;;;;;;;;5110846;28;20043;-60
2022/01/27 03:14:26;;;;;;;15.20;8.93;;;;;;;;;;5109792;28;20127;-60
2022/01/27 03:16:54;;;;;;;15.70;9.07;;;;;;;;;;5108827;28;20134;-60
2022/01/27 03:19:20;;;;;;;15.63;9.00;;;;;;;;;;5092801;28;20052;-60
2022/01/27 03:21:46;;;;;;;16.70;9.20;;;;;;;;;;5109791;28;20039;-60
2022/01/27 03:24:12;;;;;;;16.92;9.95;;;;;;;;;;5111247;28;20079;-60
2022/01/27 03:26:40;;;;;;;15.38;9.85;;;;;;;;;;5110699;28;20036;-60
2022/01/27 03:29:06;;;;;;;16.95;9.57;;;;;;;;;;5109734;28;20373;-60
2022/01/27 03:31:32;;;;;;;16.55;9.13;;;;;;;;;;5110221;28;20031;-60
2022/01/27 03:33:58;;;;;;;15.98;9.43;;;;;;;;;;5110559;28;20502;-60
2022/01/27 03:36:25;;;;;;;15.80;9.60;;;;;;;;;;5110121;28;20114;-60
2022/01/27 03:38:51;;;;;;;15.77;9.15;;;;;;;;;;5109161;28;20039;-60
2022/01/27 03:41:20;;;;;;;17.73;9.40;;;;;;;;;;5109547;28;20043;-60
2022/01/27 03:43:46;;;;;;;15.10;8.50;;;;;;;;;;5108617;28;20100;-60
2022/01/27 03:46:12;;;;;;;15.00;9.50;;;;;;;;;;5110627;28;20044;-60
2022/01/27 03:48:38;;;;;;;16.45;9.52;;;;;;;;;;5110397;28;20037;-60
2022/01/27 03:51:04;;;;;;;17.17;9.45;;;;;;;;;;5110060;28;20043;-60
2022/01/27 03:53:31;;;;;;;15.70;8.85;;;;;;;;;;5108605;28;20378;-60
2022/01/27 03:55:57;;;;;;;15.45;8.82;;;;;;;;;;5110251;28;20126;-60
2022/01/27 03:58:23;;;;;;;17.50;8.82;;;;;;;;;;5110431;28;20039;-60
2022/01/27 04:00:49;;;;;;;15.27;9.50;;;;;;;;;;5109958;28;21500;-60
2022/01/27 04:03:17;;;;;;;15.77;9.80;;;;;;;;;;5110191;28;20122;-60
2022/01/27 04:05:50;;;;;;;14.55;9.32;;;;;;;;;;5108961;28;20039;-60
2022/01/27 04:08:16;;;;;;;15.57;9.27;;;;;;;;;;5109562;28;20042;-60
2022/01/27 04:10:42;;;;;;;16.23;9.40;;;;;;;;;;5108951;28;20044;-60
2022/01/27 04:13:08;;;;;;;15.43;9.48;;;;;;;;;;5109816;28;20062;-60
2022/01/27 04:15:35;;;;;;;15.50;8.65;;;;;;;;;;5109835;28;20502;-60
2022/01/27 04:18:01;;;;;;;16.92;9.45;;;;;;;;;;5110025;28;20392;-60
2022/01/27 04:20:27;;;;;;;14.63;8.45;;;;;;;;;;5109756;28;20500;-60
2022/01/27 04:22:53;;;;;;;16.60;9.18;;;;;;;;;;5109483;28;20043;-60
2022/01/27 04:25:19;;;;;;;14.95;9.18;;;;;;;;;;5108058;28;20116;-60
2022/01/27 04:27:50;;;;;;;17.83;8.93;;;;;;;;;;5108100;28;20051;-60
2022/01/27 04:30:18;;;;;;;15.30;8.88;;;;;;;;;;5108548;28;20048;-60
2022/01/27 04:33:18;;;;;;;16.25;9.23;;;;;;;;;;5077414;28;20093;-60
2022/01/27 04:35:43;;;;;;;15.38;8.93;;;;;;;;;;5108772;28;20043;-60
2022/01/27 04:43:28;;;;;;;15.60;8.50;;;;;;;;;;5113697;28;20096;-60
2022/01/27 04:48:47;;;;;;;17.33;8.68;;;;;;;;;;5113843;28;20910;-60
2022/01/27 04:51:16;;;;;;;15.35;7.90;;;;;;;;;;5112014;28;20419;-60
2022/01/27 04:53:53;;;;;;;16.33;8.00;;;;;;;;;;5112840;28;20375;-60
2022/01/27 04:56:20;;;;;;;14.43;8.15;;;;;;;;;;5113307;28;20043;-60
2022/01/27 04:58:49;;;;;;;15.10;9.15;;;;;;;;;;5113535;28;20411;-60
2022/01/27 05:01:18;;;;;;;15.05;8.07;;;;;;;;;;5113248;28;20047;-60
2022/01/27 05:03:52;;;;;;;14.10;7.93;;;;;;;;;;5112457;28;20062;-60
2022/01/27 05:06:18;;;;;;;14.98;8.30;;;;;;;;;;5113535;28;20039;-60
2022/01/27 05:08:44;;;;;;;15.18;8.38;;;;;;;;;;5111972;28;20039;-60
2022/01/27 05:11:22;;;;;;;15.63;8.15;;;;;;;;;;5112151;28;20048;-60
2022/01/27 05:13:54;;;;;;;14.80;8.02;;;;;;;;;;5113635;28;20051;-60
2022/01/27 05:16:20;;;;;;;14.73;8.40;;;;;;;;;;5112589;28;20201;-60
2022/01/27 05:18:46;;;;;;;15.07;8.18;;;;;;;;;;5113016;28;20047;-60
2022/01/27 05:21:12;;;;;;;13.35;7.68;;;;;;;;;;5113023;28;20039;-59
2022/01/27 05:23:38;;;;;;;14.00;7.75;;;;;;;;;;5113513;28;20077;-60
2022/01/27 05:26:04;;;;;;;15.70;8.35;;;;;;;;;;5112815;28;20120;-60
2022/01/27 05:28:30;;;;;;;15.82;8.27;;;;;;;;;;5111112;28;20043;-60
2022/01/27 05:30:57;;;;;;;15.48;8.30;;;;;;;;;;5111930;28;20483;-60
2022/01/27 05:33:23;;;;;;;12.75;7.22;;;;;;;;;;5111988;28;20046;-60
2022/01/27 05:35:49;;;;;;;14.73;8.13;;;;;;;;;;5112732;28;20039;-60
2022/01/27 05:38:18;;;;;;;13.77;7.53;;;;;;;;;;5112029;28;20046;-60
2022/01/27 05:40:44;;;;;;;14.02;7.60;;;;;;;;;;5110608;28;20440;-60
2022/01/27 05:43:10;;;;;;;15.70;7.72;;;;;;;;;;5110778;28;20039;-59
2022/01/27 05:45:36;;;;;;;14.55;7.72;;;;;;;;;;5112796;28;20076;-60
2022/01/27 05:48:02;;;;;;;13.77;7.70;;;;;;;;;;5112677;28;20127;-60
2022/01/27 05:50:28;;;;;;;13.43;7.93;;;;;;;;;;5072941;28;20068;-60
2022/01/27 05:52:54;;;;;;;14.15;7.57;;;;;;;;;;5110110;28;20054;-60
2022/01/27 05:55:20;;;;;;;15.90;7.50;;;;;;;;;;5112638;28;20039;-60
2022/01/27 05:57:46;;;;;;;13.70;6.85;;;;;;;;;;5112353;28;20047;-60
2022/01/27 06:00:12;;;;;;;13.07;7.28;;;;;;;;;;5112171;28;20514;-60
2022/01/27 06:02:38;;;;;;;13.52;6.82;;;;;;;;;;5112444;28;20047;-60
2022/01/27 06:05:05;;;;;;;13.10;7.10;;;;;;;;;;5112045;28;20065;-60
2022/01/27 06:07:31;;;;;;;12.77;7.65;;;;;;;;;;5111462;28;20031;-60
2022/01/27 06:09:57;;;;;;;18.52;8.07;;;;;;;;;;5112021;28;20063;-60
2022/01/27 06:12:24;;;;;;;13.45;7.53;;;;;;;;;;5111550;28;20035;-60
2022/01/27 06:14:50;;;;;;;14.25;7.35;;;;;;;;;;5110898;28;20050;-60
2022/01/27 06:17:16;;;;;;;14.07;6.80;;;;;;;;;;5111895;28;20146;-60
2022/01/27 06:19:44;;;;;;;16.45;7.03;;;;;;;;;;5111952;28;20047;-60
2022/01/27 06:22:13;;;;;;;12.07;6.50;;;;;;;;;;5109771;28;20496;-60
2022/01/27 06:24:40;;;;;;;12.43;6.75;;;;;;;;;;5111596;28;20031;-60
2022/01/27 06:27:06;;;;;;;15.15;6.65;;;;;;;;;;5111708;28;20527;-60
2022/01/27 06:29:33;;;;;;;12.82;6.85;;;;;;;;;;5110278;28;20071;-60
2022/01/27 06:31:59;;;;;;;12.45;6.60;;;;;;;;;;5108730;28;20055;-60
2022/01/27 06:34:25;;;;;;;13.00;6.43;;;;;;;;;;5109943;28;20428;-60
2022/01/27 06:36:51;;;;;;;13.50;6.60;;;;;;;;;;5110419;28;20122;-60
2022/01/27 06:39:17;;;;;;;14.73;7.28;;;;;;;;;;5111126;28;20476;-61
2022/01/27 06:41:44;;;;;;;13.23;6.32;;;;;;;;;;5111560;28;20077;-60
2022/01/27 06:44:10;;;;;;;10.73;6.35;;;;;;;;;;5110461;28;20036;-60
2022/01/27 06:46:36;;;;;;;12.82;5.95;;;;;;;;;;5110774;28;20035;-60
2022/01/27 06:49:03;;;;;;;11.35;6.38;;;;;;;;;;5111203;28;20031;-60
2022/01/27 06:51:29;;;;;;;14.18;6.45;;;;;;;;;;5110531;28;20036;-60
2022/01/27 06:53:55;;;;;;;12.10;6.10;;;;;;;;;;5111496;28;20043;-60
2022/01/27 06:56:22;;;;;;;11.05;5.55;;;;;;;;;;5110701;28;20062;-60
2022/01/27 06:58:48;;;;;;;11.13;5.97;;;;;;;;;;5109455;28;20130;-60
2022/01/27 07:01:14;;;;;;;12.05;5.78;;;;;;;;;;5110843;28;20443;-60
2022/01/27 07:03:40;;;;;;;9.95;5.47;;;;;;;;;;5109834;28;20118;-60
2022/01/27 07:06:06;;;;;;;11.70;5.32;;;;;;;;;;5110386;28;20085;-60
2022/01/27 07:08:32;;;;;;;10.50;5.32;;;;;;;;;;5110268;28;20039;-60
2022/01/27 07:10:58;;;;;;;12.45;5.70;;;;;;;;;;5111082;28;20051;-60
2022/01/27 07:13:24;;;;;;;11.57;5.18;;;;;;;;;;5110976;28;20090;-60
2022/01/27 07:15:50;;;;;;;12.75;5.32;;;;;;;;;;5111180;28;20059;-60
2022/01/27 07:18:16;;;;;;;10.40;5.22;;;;;;;;;;5108918;28;20048;-59
2022/01/27 07:20:42;;;;;;;10.32;4.90;;;;;;;;;;5110851;28;20048;-60
2022/01/27 07:23:08;;;;;;;9.65;5.22;;;;;;;;;;5110588;28;20034;-60
2022/01/27 07:25:35;;;;;;;10.43;5.18;;;;;;;;;;5109476;28;20101;-60
2022/01/27 07:28:01;;;;;;;9.38;4.55;;;;;;;;;;5110662;28;20027;-60
2022/01/27 07:30:27;;;;;;;11.05;4.78;;;;;;;;;;5109302;28;20043;-61
2022/01/27 07:32:53;;;;;;;11.05;4.85;;;;;;;;;;5110477;28;20036;-60
2022/01/27 07:35:19;;;;;;;9.95;5.07;;;;;;;;;;5110390;28;20035;-60
2022/01/27 07:37:46;;;;;;;9.65;4.72;;;;;;;;;;5109749;28;20375;-60
2022/01/27 07:40:12;;;;;;;10.05;4.53;;;;;;;;;;5110617;28;20051;-60
2022/01/27 07:42:39;;;;;;;9.82;4.55;;;;;;;;;;5108700;28;20059;-60
2022/01/27 07:45:06;;;;;;;9.38;4.35;;;;;;;;;;5108886;28;20123;-61
2022/01/27 07:47:32;;;;;;;9.68;4.32;;;;;;;;;;5109277;28;20475;-60
2022/01/27 07:49:58;;;;;;;11.20;5.03;;;;;;;;;;5110387;28;20043;-60
2022/01/27 07:52:24;;;;;;;8.90;4.40;;;;;;;;;;5109825;28;20082;-60
2022/01/27 07:54:50;;;;;;;9.65;4.60;;;;;;;;;;5091587;28;20036;-60
2022/01/27 07:57:16;;;;;;;12.15;4.95;;;;;;;;;;5110341;28;20036;-60
2022/01/27 07:59:42;;;;;;;9.95;4.57;;;;;;;;;;5105950;28;20044;-60
2022/01/27 08:02:08;;;;;;;10.48;4.85;;;;;;;;;;5108496;28;20047;-60
2022/01/27 08:04:35;;;;;;;10.02;4.65;;;;;;;;;;5108166;28;20494;-60
2022/01/27 08:07:02;;;;;;;9.43;4.28;;;;;;;;;;5096932;28;20047;-60
2022/01/27 08:09:28;;;;;;;10.18;4.30;;;;;;;;;;5097453;28;20186;-60
2022/01/27 08:11:54;;;;;;;10.63;4.30;;;;;;;;;;5109140;28;20039;-60
2022/01/27 08:14:20;;;;;;;8.90;4.13;;;;;;;;;;5110019;28;20042;-60
2022/01/27 08:16:46;;;;;;;10.63;4.80;;;;;;;;;;5109370;28;20077;-60
2022/01/27 08:19:12;;;;;;;10.43;4.57;;;;;;;;;;5110050;28;20048;-61
2022/01/27 08:21:38;;;;;;;10.38;4.65;;;;;;;;;;5108546;28;20092;-60
2022/01/27 08:24:04;;;;;;;9.77;4.20;;;;;;;;;;5109598;28;20043;-60
2022/01/27 08:26:50;;;;;;;9.40;4.55;;;;;;;;;;5107741;28;20059;-60
2022/01/27 08:31:54;;;;;;;9.23;4.13;;;;;;;;;;5109515;28;20041;-60
2022/01/27 08:34:35;;;;;;;11.77;4.57;;;;;;;;;;5107568;28;20052;-60
2022/01/27 08:37:05;;;;;;;9.52;4.07;;;;;;;;;;5109089;28;20051;-60
2022/01/27 08:39:31;;;;;;;9.35;4.00;;;;;;;;;;5108720;28;20047;-60
2022/01/27 08:41:57;;;;;;;10.70;4.80;;;;;;;;;;5107681;28;20048;-60
2022/01/27 08:44:23;;;;;;;9.10;4.25;;;;;;;;;;5108500;28;20581;-60
2022/01/27 08:46:49;;;;;;;9.93;4.25;;;;;;;;;;5106652;28;20491;-60
2022/01/27 08:49:18;;;;;;;9.88;4.03;;;;;;;;;;5109730;28;20457;-60
2022/01/27 08:51:44;;;;;;;10.45;3.92;;;;;;;;;;5108514;28;20050;-61
2022/01/27 08:54:10;;;;;;;9.63;3.90;;;;;;;;;;5109552;28;20039;-60
2022/01/27 08:56:36;;;;;;;11.52;3.75;;;;;;;;;;5109525;28;20036;-60
2022/01/27 08:59:02;;;;;;;12.55;4.25;;;;;;;;;;5109790;28;20093;-60
2022/01/27 09:01:28;;;;;;;8.68;3.72;;;;;;;;;;5108840;28;20048;-60
2022/01/27 09:03:54;;;;;;;10.98;3.75;;;;;;;;;;5108464;28;20047;-61
2022/01/27 09:06:20;;;;;;;9.90;3.40;;;;;;;;;;5107312;28;20051;-60
2022/01/27 09:08:47;;;;;;;11.45;4.28;;;;;;;;;;5108297;28;20415;-60
2022/01/27 09:11:13;;;;;;;10.13;3.60;;;;;;;;;;5109400;28;20044;-60
2022/01/27 09:13:39;;;;;;;12.30;4.43;;;;;;;;;;5109584;28;20475;-61
2022/01/27 09:16:06;;;;;;;9.38;3.58;;;;;;;;;;5109730;28;20109;-60
2022/01/27 09:18:33;;;;;;;10.27;3.60;;;;;;;;;;5109739;28;20122;-60
2022/01/27 09:21:01;;;;;;;9.82;3.50;;;;;;;;;;5112779;28;20039;-60
2022/01/27 09:23:27;;;;;;;9.70;4.03;;;;;;;;;;5113369;28;20497;-61
2022/01/27 09:26:01;;;;;;;9.25;3.47;;;;;;;;;;5112542;28;20119;-60
2022/01/27 09:28:27;;;;;;;10.35;4.32;;;;;;;;;;5094699;28;20047;-61
2022/01/27 09:30:53;;;;;;;9.40;3.58;;;;;;;;;;5108741;28;20078;-61
2022/01/27 09:33:19;;;;;;;9.13;3.15;;;;;;;;;;5112793;28;20036;-60
2022/01/27 09:35:45;;;;;;;10.65;3.35;;;;;;;;;;5094221;28;20047;-60
2022/01/27 09:38:11;;;;;;;9.98;3.20;;;;;;;;;;5111885;28;20043;-60
2022/01/27 09:40:37;;;;;;;6.90;3.03;;;;;;;;;;5111180;28;20075;-60
2022/01/27 09:43:04;;;;;;;12.00;3.92;;;;;;;;;;5112158;28;20118;-60
2022/01/27 09:45:31;;;;;;;7.95;3.25;;;;;;;;;;5110778;28;20516;-61
2022/01/27 09:48:02;;;;;;;9.70;3.22;;;;;;;;;;5112725;28;20043;-60
2022/01/27 09:51:00;;;;;;;10.82;3.20;;;;;;;;;;5111131;28;20158;-60
2022/01/27 09:53:26;;;;;;;11.27;3.60;;;;;;;;;;5110997;28;20143;-61
2022/01/27 09:55:52;;;;;;;12.23;4.25;;;;;;;;;;5094441;28;20062;-61
2022/01/27 09:58:18;;;;;;;11.60;3.30;;;;;;;;;;5112463;28;20148;-60
2022/01/27 10:00:44;;;;;;;11.60;3.47;;;;;;;;;;5110579;28;20062;-60
2022/01/27 10:03:14;;;;;;;13.05;4.07;;;;;;;;;;5112307;28;20104;-60
2022/01/27 10:05:40;;;;;;;10.30;3.03;;;;;;;;;;5112548;28;20387;-60
2022/01/27 10:08:10;;;;;;;10.15;3.50;;;;;;;;;;5111296;28;20047;-60
2022/01/27 10:10:37;;;;;;;13.13;3.67;;;;;;;;;;5111665;28;20039;-60
2022/01/27 10:13:05;;;;;;;12.13;3.67;;;;;;;;;;5111165;28;20213;-61
2022/01/27 10:15:34;;;;;;;12.68;4.18;;;;;;;;;;5092540;28;20640;-61
2022/01/27 10:18:07;;;;;;;11.50;3.92;;;;;;;;;;5110099;28;20085;-60
2022/01/27 10:20:33;;;;;;;12.07;3.83;;;;;;;;;;5112121;28;20048;-60
2022/01/27 10:23:18;;;;;;;12.05;3.88;;;;;;;;;;5110819;28;20042;-60
2022/01/27 10:25:53;;;;;;;11.30;3.35;;;;;;;;;;5109836;28;20052;-61
2022/01/27 10:28:32;;;;;;;10.35;3.90;;;;;;;;;;5111371;28;20565;-60
2022/01/27 10:31:08;;;;;;;13.10;3.50;;;;;;;;;;5110869;28;20035;-60
2022/01/27 10:33:41;;;;;;;11.85;3.75;;;;;;;;;;5109578;28;20082;-60
2022/01/27 10:36:18;;;;;;;13.02;3.83;;;;;;;;;;5111083;28;20043;-61
2022/01/27 10:38:44;;;;;;;13.40;3.65;;;;;;;;;;5111434;28;20035;-61
2022/01/27 10:41:10;;;;;;;12.65;3.95;;;;;;;;;;5111357;28;20505;-60
2022/01/27 10:43:36;;;;;;;11.52;3.78;;;;;;;;;;5111324;28;20032;-60
2022/01/27 10:46:06;;;;;;;11.02;3.03;;;;;;;;;;5111507;28;20040;-60
2022/01/27 10:48:34;;;;;;;10.80;3.40;;;;;;;;;;5111463;28;20077;-60
2022/01/27 10:51:09;;;;;;;10.82;3.60;;;;;;;;;;5111010;28;20507;-60
2022/01/27 10:53:47;;;;;;;11.65;3.75;;;;;;;;;;5110834;28;20043;-60
2022/01/27 10:56:18;;;;;;;14.98;3.55;;;;;;;;;;5111371;28;20044;-61
2022/01/27 10:58:44;;;;;;;12.43;3.65;;;;;;;;;;5111615;28;20038;-60
2022/01/27 11:01:10;;;;;;;9.88;3.30;;;;;;;;;;5109035;28;20054;-60
2022/01/27 11:03:36;;;;;;;11.70;3.75;;;;;;;;;;5111321;28;20040;-60
2022/01/27 11:06:08;;;;;;;9.52;3.42;;;;;;;;;;5110799;28;20042;-60
2022/01/27 11:08:34;;;;;;;14.52;3.42;;;;;;;;;;5111133;28;20125;-61
2022/01/27 11:11:02;;;;;;;14.18;3.40;;;;;;;;;;5111413;28;20071;-61
2022/01/27 11:13:28;;;;;;;13.55;3.40;;;;;;;;;;5111445;28;20118;-60
2022/01/27 11:15:54;;;;;;;13.30;3.65;;;;;;;;;;5109418;28;20090;-60
2022/01/27 11:18:22;;;;;;;12.00;3.42;;;;;;;;;;5111182;28;20095;-62
2022/01/27 11:25:51;;;;;;;13.85;3.53;;;;;;;;;;5092826;28;20131;-62
2022/01/27 11:28:17;;;;;;;17.48;4.35;;;;;;;;;;5109668;28;20136;-60
2022/01/27 11:30:53;;;;;;;13.90;4.38;;;;;;;;;;5108981;28;20060;-59
2022/01/27 11:33:19;;;;;;;14.45;3.33;;;;;;;;;;5092948;28;20051;-65
2022/01/27 11:35:45;;;;;;;14.63;4.22;;;;;;;;;;5110926;28;20035;-65
2022/01/27 11:38:12;;;;;;;13.90;3.45;;;;;;;;;;5109786;28;20044;-66
2022/01/27 11:40:38;;;;;;;10.35;3.40;;;;;;;;;;5110858;28;20599;-65
2022/01/27 11:43:11;;;;;;;9.70;3.10;;;;;;;;;;5108210;28;20047;-65
2022/01/27 11:45:41;;;;;;;12.27;3.83;;;;;;;;;;5110893;28;20053;-61
2022/01/27 11:48:10;;;;;;;14.75;3.50;;;;;;;;;;5109923;28;20032;-64
2022/01/27 11:50:49;;;;;;;11.80;3.10;;;;;;;;;;5110550;28;20044;-60
2022/01/27 11:53:27;;;;;;;15.25;3.88;;;;;;;;;;5108655;28;20052;-67
2022/01/27 11:55:53;;;;;;;13.73;3.33;;;;;;;;;;5110237;28;20043;-60
2022/01/27 11:58:20;;;;;;;14.05;3.85;;;;;;;;;;5108347;28;20394;-61
2022/01/27 12:01:10;;;;;;;13.65;3.10;;;;;;;;;;5109815;28;20150;-65
2022/01/27 12:03:38;;;;;;;13.88;3.42;;;;;;;;;;5110313;28;20116;-65
2022/01/27 12:06:14;;;;;;;16.80;3.85;;;;;;;;;;5109574;28;20457;-64
2022/01/27 12:08:40;;;;;;;17.17;3.58;;;;;;;;;;5110270;28;20044;-61
2022/01/27 12:11:09;;;;;;;12.35;3.67;;;;;;;;;;5109673;28;20042;-61
2022/01/27 12:13:44;;;;;;;15.40;3.78;;;;;;;;;;5110192;28;20043;-60
2022/01/27 12:19:04;;;;;;;12.20;3.10;;;;;;;;;;5110034;28;20036;-60
2022/01/27 12:21:42;;;;;;;14.43;3.17;;;;;;;;;;5109270;28;20039;-60
2022/01/27 12:24:23;;;;;;;14.07;3.38;;;;;;;;;;5091598;28;20465;-61
2022/01/27 12:26:49;;;;;;;12.75;3.35;;;;;;;;;;5110067;28;20140;-60
2022/01/27 12:29:28;;;;;;;11.48;3.35;;;;;;;;;;5110087;28;20035;-60
2022/01/27 12:31:54;;;;;;;11.43;3.20;;;;;;;;;;5108500;28;20690;-60
2022/01/27 12:34:20;;;;;;;9.15;3.28;;;;;;;;;;5110021;28;20032;-60
2022/01/27 12:36:56;;;;;;;11.75;3.20;;;;;;;;;;5109497;28;20044;-61
2022/01/27 12:39:22;;;;;;;14.23;3.38;;;;;;;;;;5110249;28;20665;-61
2022/01/27 12:41:49;;;;;;;12.55;3.60;;;;;;;;;;5109651;28;20040;-60
2022/01/27 12:44:15;;;;;;;13.48;3.10;;;;;;;;;;5108510;28;20047;-61
2022/01/27 12:47:00;;;;;;;12.57;3.13;;;;;;;;;;5110378;28;20128;-60
2022/01/27 12:50:01;;;;;;;11.48;3.65;;;;;;;;;;5109972;28;20552;-60
2022/01/27 12:52:30;;;;;;;13.07;3.33;;;;;;;;;;5107839;28;20077;-60
2022/01/27 12:54:56;;;;;;;13.75;3.38;;;;;;;;;;5114085;28;20040;-61
2022/01/27 12:57:23;;;;;;;12.05;3.53;;;;;;;;;;5110320;28;20066;-60
2022/01/27 12:59:49;;;;;;;14.23;2.72;;;;;;;;;;5113952;28;20035;-61
2022/01/27 13:02:15;;;;;;;11.02;3.00;;;;;;;;;;5112473;28;20040;-60
2022/01/27 13:04:42;;;;;;;12.65;3.13;;;;;;;;;;5111648;28;20141;-60
2022/01/27 13:07:08;;;;;;;12.20;3.20;;;;;;;;;;5095008;28;20079;-60
2022/01/27 13:09:35;;;;;;;14.68;3.50;;;;;;;;;;5112264;28;20055;-60
2022/01/27 13:12:11;;;;;;;9.13;2.78;;;;;;;;;;5109581;28;20088;-61
2022/01/27 13:14:57;;;;;;;12.35;2.95;;;;;;;;;;5111222;28;20123;-61
2022/01/27 13:17:29;;;;;;;12.18;3.15;;;;;;;;;;5113433;28;20513;-61
2022/01/27 13:19:59;;;;;;;12.53;3.47;;;;;;;;;;5113605;28;20426;-60
2022/01/27 13:22:33;;;;;;;13.00;3.10;;;;;;;;;;5112477;28;20051;-61
2022/01/27 13:25:01;;;;;;;12.30;3.42;;;;;;;;;;5112788;28;20483;-61
2022/01/27 13:27:27;;;;;;;10.20;3.00;;;;;;;;;;5112755;28;20050;-61
2022/01/27 13:29:58;;;;;;;10.20;3.15;;;;;;;;;;5111829;28;20144;-61
2022/01/27 13:32:24;;;;;;;10.93;3.05;;;;;;;;;;5111834;28;20420;-60
2022/01/27 13:34:50;;;;;;;13.00;3.13;;;;;;;;;;5109685;28;20048;-61
2022/01/27 13:37:32;;;;;;;12.25;3.25;;;;;;;;;;5110501;28;20047;-60
2022/01/27 13:42:24;;;;;;;11.73;3.53;;;;;;;;;;5113070;28;20124;-61
2022/01/27 13:44:54;;;;;;;11.77;3.58;;;;;;;;;;5111753;28;20035;-61
2022/01/27 13:47:35;;;;;;;11.75;2.95;;;;;;;;;;5111681;28;20111;-61
2022/01/27 13:50:04;;;;;;;12.77;3.58;;;;;;;;;;5111579;28;20118;-61
2022/01/27 13:52:38;;;;;;;11.60;2.88;;;;;;;;;;5110383;28;20051;-61
2022/01/27 13:55:07;;;;;;;9.98;2.60;;;;;;;;;;5112646;28;20508;-61
2022/01/27 13:57:35;;;;;;;10.05;3.00;;;;;;;;;;5112557;28;20347;-61
2022/01/27 14:00:08;;;;;;;12.52;2.80;;;;;;;;;;5109226;28;20338;-60
2022/01/27 14:02:40;;;;;;;10.30;3.17;;;;;;;;;;5092293;28;20040;-60
2022/01/27 14:05:14;;;;;;;12.68;3.22;;;;;;;;;;5093618;28;20040;-60
2022/01/27 14:07:41;;;;;;;11.27;2.90;;;;;;;;;;5110283;28;20036;-61
2022/01/27 14:10:26;;;;;;;10.50;2.60;;;;;;;;;;5112442;28;20074;-61
2022/01/27 14:13:05;;;;;;;13.60;3.10;;;;;;;;;;5111843;28;20208;-61
2022/01/27 14:15:35;;;;;;;13.35;3.13;;;;;;;;;;5111062;28;20360;-60
2022/01/27 14:18:02;;;;;;;11.40;2.80;;;;;;;;;;5111316;28;20345;-60
2022/01/27 14:20:28;;;;;;;11.45;3.30;;;;;;;;;;5112059;28;20036;-61
2022/01/27 14:23:16;;;;;;;10.48;2.50;;;;;;;;;;5110047;28;20051;-60
2022/01/27 14:25:48;;;;;;;11.90;2.80;;;;;;;;;;5093818;28;20490;-61
2022/01/27 14:28:14;;;;;;;11.88;2.70;;;;;;;;;;5110934;28;20040;-60
2022/01/27 14:30:40;;;;;;;12.75;2.75;;;;;;;;;;5109412;28;20062;-60
2022/01/27 14:33:06;;;;;;;12.15;2.70;;;;;;;;;;5111705;28;20036;-61
2022/01/27 14:35:32;;;;;;;10.07;2.65;;;;;;;;;;5112074;28;20043;-60
2022/01/27 14:37:58;;;;;;;10.82;2.67;;;;;;;;;;5109468;28;20077;-60
2022/01/27 14:40:25;;;;;;;10.10;3.20;;;;;;;;;;5110120;28;20062;-60
2022/01/27 14:42:51;;;;;;;12.65;3.08;;;;;;;;;;5111749;28;20071;-61
2022/01/27 14:45:18;;;;;;;12.40;2.95;;;;;;;;;;5112016;28;20395;-60
2022/01/27 14:47:47;;;;;;;12.13;2.80;;;;;;;;;;5111280;28;20044;-61
2022/01/27 14:50:14;;;;;;;10.27;2.70;;;;;;;;;;5111422;28;20027;-60
2022/01/27 14:52:43;;;;;;;10.80;2.83;;;;;;;;;;5091738;28;20471;-61
2022/01/27 14:55:09;;;;;;;11.80;3.03;;;;;;;;;;5111143;28;20112;-60
2022/01/27 14:57:35;;;;;;;10.15;2.40;;;;;;;;;;5092395;28;20059;-60
2022/01/27 15:00:02;;;;;;;11.48;2.58;;;;;;;;;;5110229;28;20035;-60
2022/01/27 15:02:28;;;;;;;9.23;2.88;;;;;;;;;;5111402;28;20052;-61
2022/01/27 15:04:54;;;;;;;11.90;3.03;;;;;;;;;;5111214;28;20127;-61
2022/01/27 15:07:20;;;;;;;9.80;2.78;;;;;;;;;;5110881;28;20085;-60
2022/01/27 15:09:46;;;;;;;10.98;2.90;;;;;;;;;;5111619;28;20056;-61
2022/01/27 15:12:15;;;;;;;11.60;2.90;;;;;;;;;;5109700;28;20112;-61
2022/01/27 15:20:12;;;;;;;12.25;2.80;;;;;;;;;;5109930;28;20527;-61
2022/01/27 15:22:38;;;;;;;12.40;2.85;;;;;;;;;;5110195;28;20078;-61
2022/01/27 15:25:04;;;;;;;11.10;2.67;;;;;;;;;;5110780;28;20051;-61
2022/01/27 15:27:30;;;;;;;12.52;2.85;;;;;;;;;;5109754;28;20047;-61
2022/01/27 15:29:56;;;;;;;11.45;3.13;;;;;;;;;;5110917;28;20059;-61
2022/01/27 15:32:22;;;;;;;12.48;2.70;;;;;;;;;;5110594;28;20094;-61
2022/01/27 15:34:49;;;;;;;12.20;2.83;;;;;;;;;;5110646;28;20043;-60
2022/01/27 15:37:16;;;;;;;9.23;2.42;;;;;;;;;;5110502;28;20088;-61
2022/01/27 15:39:48;;;;;;;12.63;3.03;;;;;;;;;;5109293;28;20051;-60